Chomutov, Czech Republic
Current Conditions -  °F | °C
As of 10:00 AM on Thursday 23 Oct 2014 (Local Time) from LKKV Reporting Station
Light Rain Light Rain  
Wind Chill: 46°   Ceiling: 1200
Heat Index: 46°   Visibility: 6mi
Dew Point: 43°   Wind: 3mph
Humidity: 87%   Direction: 310°NW
Pressure: 30.06"   Gusts: NA
Location:  50.46°N, 13.39°E
Report Text: LKKV 230800Z 31003KT 9999 -RA BKN012 08/06 Q1018
Loading
Personal Weather Stations






























Interactive Weather Map
Tropical Storm Tracking
New forecast layout! Learn more

10-Day Weather Forecast

Advertisements
Track Severe Weather on mobile